Norfolk, NE (68701)

07:04 CST le 19 janvier 2017 (GMT -0600)
West Central - Norfolk | | Change Station

Alt. 1640 ft 42.04 °N, 97.45 °W | Updated 2 seconds ago

Overcast
Couvert
34.7 ° F
Paraît 31 ° F
N
4.5
Vent Variable Vent de Sud
Gusts 8.1 mph

Aujourd'hui
Haut(e) -- | Bas -- ° F
--% Risque de précip.
Hier
Haut(e) -- | Bas -- ° F
Precip. -- pouce
Pression 29.77 pouce
Visibilité 1.5 Miles terrestres
Nuages Couvert 400 ft
Refroidissement éolien 31 ° F
Point de rosée 34 ° F
Humidité 97%
Précipitations 0.00 pouce
Profondeur de la couche neigeuse Non disponible.
7:52 AM 5:28 PM
Lune gibbeuse décroissante, 54% visible
METAR KOFK 191256Z AUTO 19005KT 1 1/2SM BR OVC004 02/01 A2973 RMK AO2 SLP081 T00170011
Pression 29.77 pouce
Visibilité 1.5 Miles terrestres
Nuages Couvert 400 ft
Refroidissement éolien 31 ° F
Point de rosée 34 ° F
Humidité 97%
Précipitations 0.00 pouce
Profondeur de la couche neigeuse Non disponible.
7:52 AM 5:28 PM
Lune gibbeuse décroissante, 54% visible
METAR KOFK 191256Z AUTO 19005KT 1 1/2SM BR OVC004 02/01 A2973 RMK AO2 SLP081 T00170011

Get Your Daily Forecast Email!

Thanks for signing up!

Be on the lookout for a verification email in your inbox.

You'll start receiving the daily forecast at 8 AM.

×

10-Day Weather Forecast

Almanac

Astronomie

Jan. 19, 2017 Lever Coucher
Temps réel
Crépuscule civil
Crépuscule nautique
Crépuscule astronomique
Lune
Durée de lumière visible
Longueur du jour
Tomorrow will be .
, % of the Moon is Illuminated

Extrêmes aujourd'hui

State Highs State Lows

Community

WunderPhotos

Upload Photos

1,962,540 Photos téléchargées !

WunderBlog® & News

Nearby

Qualité de l'air

  Qualité de l'air Indice de la qualité de l'air Polluant
Not available.

Épaisseur de neige

Station Depth Altitude

Activité sismique

Ville Distance Mag. Time & Date
Minimum magnitude displayed is 2.5.

Températures des eaux côtières

Lieu Température

Stations

Stations météo à proximité

Emplacement de la station Température Refroidissement éolien Point de rosée Humidité Vent Precip. Alt. Mise à jour Type
                   

Watches & Warnings

There are currently no watches in effect.